N1001 SBCG-SBCY
Flight info
| Callsign | N1001 |
|---|---|
| Flight time | 0h 47m |
| Altitude | 32000 |
| Route | KOXAL UZ63 TOSAR/N0466F310 |
| Aircraft | B738/M-SDE2E3FGHIRWXY/LB1 |
Departure
| Time | 2026-04-23 19:17 |
|---|---|
| Airport | Campo Grande Airport (SBCG) |
Arrival
| Time | 2026-04-23 20:05 |
|---|---|
| Airport | Várzea Grande–Marechal Rondon International Airport (SBCY) |
| Time | Latitude | Longitude | Altitude | Speed | Heading |
|---|---|---|---|---|---|
| 2026-04-23 18:49 | -20.45814 | -54.67043 | 1838 ft | 0 kts | 353° |
| 2026-04-23 19:04 | -20.45823 | -54.67042 | 1861 ft | 1 kts | 353° |
| 2026-04-23 19:04 | -20.45841 | -54.67040 | 1862 ft | 3 kts | 18° |
| 2026-04-23 19:05 | -20.45853 | -54.67051 | 1833 ft | 1 kts | 81° |
| 2026-04-23 19:05 | -20.45875 | -54.67196 | 1838 ft | 0 kts | 81° |
| 2026-04-23 19:05 | -20.45877 | -54.67206 | 1838 ft | 0 kts | 81° |
| 2026-04-23 19:07 | -20.45936 | -54.67140 | 1838 ft | 24 kts | 169° |
| 2026-04-23 19:07 | -20.46136 | -54.67116 | 1838 ft | 34 kts | 173° |
| 2026-04-23 19:07 | -20.46393 | -54.67099 | 1838 ft | 37 kts | 194° |
| 2026-04-23 19:08 | -20.46589 | -54.67256 | 1838 ft | 34 kts | 221° |
| 2026-04-23 19:08 | -20.46753 | -54.67416 | 1842 ft | 31 kts | 222° |
| 2026-04-23 19:08 | -20.46899 | -54.67557 | 1838 ft | 26 kts | 222° |
| 2026-04-23 19:08 | -20.47028 | -54.67683 | 1838 ft | 24 kts | 222° |
| 2026-04-23 19:09 | -20.47141 | -54.67792 | 1838 ft | 21 kts | 223° |
| 2026-04-23 19:09 | -20.47249 | -54.67895 | 1838 ft | 21 kts | 220° |
| 2026-04-23 19:09 | -20.47355 | -54.67992 | 1838 ft | 20 kts | 222° |
| 2026-04-23 19:09 | -20.47480 | -54.68113 | 1838 ft | 27 kts | 224° |
| 2026-04-23 19:10 | -20.47612 | -54.68248 | 1838 ft | 26 kts | 224° |
| 2026-04-23 19:10 | -20.47724 | -54.68359 | 1838 ft | 5 kts | 196° |
| 2026-04-23 19:10 | -20.47730 | -54.68358 | 1838 ft | 0 kts | 164° |
| 2026-04-23 19:14 | -20.47740 | -54.68353 | 1838 ft | 9 kts | 152° |
| 2026-04-23 19:15 | -20.47793 | -54.68301 | 1838 ft | 10 kts | 135° |
| 2026-04-23 19:15 | -20.47837 | -54.68251 | 1838 ft | 1 kts | 131° |
| 2026-04-23 19:15 | -20.47848 | -54.68222 | 1839 ft | 5 kts | 89° |
| 2026-04-23 19:15 | -20.47835 | -54.68201 | 1839 ft | 0 kts | 44° |
| 2026-04-23 19:16 | -20.47730 | -54.68100 | 1839 ft | 58 kts | 42° |
| 2026-04-23 19:17 | -20.46428 | -54.66852 | 2108 ft | 166 kts | 43° |
| 2026-04-23 19:17 | -20.45521 | -54.66014 | 2859 ft | 176 kts | 43° |
| 2026-04-23 19:17 | -20.44610 | -54.65140 | 3743 ft | 182 kts | 45° |
| 2026-04-23 19:17 | -20.43592 | -54.64154 | 4196 ft | 209 kts | 44° |
| 2026-04-23 19:18 | -20.42483 | -54.63086 | 4880 ft | 220 kts | 44° |
| 2026-04-23 19:18 | -20.41343 | -54.61989 | 5835 ft | 220 kts | 43° |
| 2026-04-23 19:18 | -20.40215 | -54.60901 | 6633 ft | 218 kts | 42° |
| 2026-04-23 19:18 | -20.39026 | -54.59942 | 6853 ft | 215 kts | 21° |
| 2026-04-23 19:19 | -20.36198 | -54.60880 | 8116 ft | 238 kts | 303° |
| 2026-04-23 19:19 | -20.35735 | -54.62551 | 8916 ft | 239 kts | 268° |
| 2026-04-23 19:20 | -20.35193 | -54.66074 | 10456 ft | 249 kts | 297° |
| 2026-04-23 19:20 | -20.34127 | -54.67517 | 11204 ft | 250 kts | 319° |
| 2026-04-23 19:20 | -20.32826 | -54.68782 | 11891 ft | 259 kts | 317° |
| 2026-04-23 19:20 | -20.31488 | -54.70184 | 12230 ft | 284 kts | 315° |
| 2026-04-23 19:21 | -20.30055 | -54.71781 | 12458 ft | 313 kts | 314° |
| 2026-04-23 19:21 | -20.26863 | -54.75498 | 12843 ft | 366 kts | 310° |
| 2026-04-23 19:21 | -20.25267 | -54.77719 | 13030 ft | 389 kts | 306° |
| 2026-04-23 19:22 | -20.23656 | -54.80109 | 13476 ft | 401 kts | 306° |
| 2026-04-23 19:22 | -20.22000 | -54.82532 | 14099 ft | 406 kts | 307° |
| 2026-04-23 19:22 | -20.17995 | -54.86685 | 15486 ft | 406 kts | 335° |
| 2026-04-23 19:23 | -20.15342 | -54.87708 | 16187 ft | 406 kts | 343° |
| 2026-04-23 19:23 | -20.12658 | -54.88556 | 16815 ft | 410 kts | 345° |
| 2026-04-23 19:23 | -20.09907 | -54.89404 | 17396 ft | 413 kts | 344° |
| 2026-04-23 19:24 | -20.04352 | -54.91149 | 18448 ft | 421 kts | 343° |
| 2026-04-23 19:24 | -20.01530 | -54.92055 | 18887 ft | 425 kts | 343° |
| 2026-04-23 19:24 | -19.95870 | -54.93892 | 19861 ft | 428 kts | 343° |
| 2026-04-23 19:25 | -19.90098 | -54.95768 | 20737 ft | 434 kts | 343° |
| 2026-04-23 19:25 | -19.84231 | -54.97420 | 21539 ft | 439 kts | 352° |
| 2026-04-23 19:26 | -19.78144 | -54.97978 | 22298 ft | 445 kts | 356° |
| 2026-04-23 19:26 | -19.75045 | -54.98195 | 22649 ft | 448 kts | 356° |
| 2026-04-23 19:27 | -19.68798 | -54.98690 | 23356 ft | 452 kts | 355° |
| 2026-04-23 19:27 | -19.59334 | -54.99567 | 24260 ft | 457 kts | 354° |
| 2026-04-23 19:28 | -19.52984 | -55.00171 | 24845 ft | 459 kts | 354° |
| 2026-04-23 19:28 | -19.46590 | -55.00776 | 25380 ft | 462 kts | 354° |
| 2026-04-23 19:29 | -19.43381 | -55.01079 | 25638 ft | 463 kts | 354° |
| 2026-04-23 19:29 | -19.36988 | -55.01681 | 26152 ft | 465 kts | 354° |
| 2026-04-23 19:30 | -19.30574 | -55.02658 | 26627 ft | 467 kts | 345° |
| 2026-04-23 19:30 | -19.27439 | -55.03583 | 26875 ft | 468 kts | 343° |
| 2026-04-23 19:30 | -19.21190 | -55.05617 | 27319 ft | 471 kts | 343° |
| 2026-04-23 19:31 | -19.18053 | -55.06630 | 27525 ft | 472 kts | 343° |
| 2026-04-23 19:31 | -19.14897 | -55.07626 | 27740 ft | 473 kts | 343° |
| 2026-04-23 19:31 | -19.11736 | -55.08603 | 27952 ft | 474 kts | 343° |
| 2026-04-23 19:31 | -19.08559 | -55.09569 | 28156 ft | 475 kts | 344° |
| 2026-04-23 19:32 | -19.05380 | -55.10528 | 28411 ft | 475 kts | 344° |
| 2026-04-23 19:32 | -19.02210 | -55.11481 | 28740 ft | 473 kts | 344° |
| 2026-04-23 19:32 | -18.99055 | -55.12429 | 29097 ft | 470 kts | 344° |
| 2026-04-23 19:32 | -18.95908 | -55.13374 | 29463 ft | 469 kts | 344° |
| 2026-04-23 19:33 | -18.92764 | -55.14319 | 29810 ft | 468 kts | 344° |
| 2026-04-23 19:33 | -18.89644 | -55.15257 | 30158 ft | 466 kts | 344° |
| 2026-04-23 19:33 | -18.83443 | -55.17121 | 30698 ft | 466 kts | 344° |
| 2026-04-23 19:34 | -18.80322 | -55.18059 | 30974 ft | 467 kts | 344° |
| 2026-04-23 19:34 | -18.77198 | -55.18998 | 31279 ft | 466 kts | 343° |
| 2026-04-23 19:34 | -18.70959 | -55.20872 | 31903 ft | 466 kts | 344° |
| 2026-04-23 19:35 | -18.67827 | -55.21812 | 31911 ft | 469 kts | 344° |
| 2026-04-23 19:35 | -18.61568 | -55.23689 | 31924 ft | 466 kts | 344° |
| 2026-04-23 19:36 | -18.55337 | -55.25556 | 31928 ft | 465 kts | 344° |
| 2026-04-23 19:36 | -18.49114 | -55.27420 | 31920 ft | 464 kts | 344° |
| 2026-04-23 19:37 | -18.42905 | -55.29278 | 31921 ft | 463 kts | 344° |
| 2026-04-23 19:37 | -18.36696 | -55.31134 | 31923 ft | 463 kts | 344° |
| 2026-04-23 19:38 | -18.30493 | -55.32988 | 31923 ft | 463 kts | 344° |
| 2026-04-23 19:38 | -18.24287 | -55.34841 | 31922 ft | 464 kts | 344° |
| 2026-04-23 19:39 | -18.18077 | -55.36693 | 31923 ft | 464 kts | 344° |
| 2026-04-23 19:39 | -18.11862 | -55.38546 | 31916 ft | 465 kts | 344° |
| 2026-04-23 19:40 | -18.05667 | -55.40392 | 31919 ft | 465 kts | 344° |
| 2026-04-23 19:40 | -17.99438 | -55.42246 | 31919 ft | 466 kts | 344° |
| 2026-04-23 19:41 | -17.93158 | -55.44115 | 31912 ft | 466 kts | 344° |
| 2026-04-23 19:41 | -17.86949 | -55.45961 | 31912 ft | 467 kts | 344° |
| 2026-04-23 19:42 | -17.80706 | -55.47822 | 31916 ft | 467 kts | 344° |
| 2026-04-23 19:42 | -17.74453 | -55.49698 | 31906 ft | 467 kts | 344° |
| 2026-04-23 19:43 | -17.68207 | -55.51570 | 31913 ft | 467 kts | 344° |
| 2026-04-23 19:43 | -17.61957 | -55.53437 | 31912 ft | 467 kts | 345° |
| 2026-04-23 19:44 | -17.55710 | -55.55290 | 31909 ft | 466 kts | 345° |
| 2026-04-23 19:44 | -17.49462 | -55.57142 | 31906 ft | 466 kts | 345° |
| 2026-04-23 19:45 | -17.43225 | -55.58991 | 31908 ft | 466 kts | 345° |
| 2026-04-23 19:45 | -17.36979 | -55.60842 | 31899 ft | 466 kts | 345° |
| 2026-04-23 19:46 | -17.30738 | -55.62691 | 31903 ft | 466 kts | 345° |
| 2026-04-23 19:46 | -17.24501 | -55.64537 | 31906 ft | 466 kts | 345° |
| 2026-04-23 19:47 | -17.19311 | -55.66072 | 31898 ft | 466 kts | 345° |
| 2026-04-23 19:47 | -17.13071 | -55.67916 | 31905 ft | 466 kts | 345° |
| 2026-04-23 19:48 | -17.06822 | -55.69762 | 31645 ft | 470 kts | 345° |
| 2026-04-23 19:48 | -17.03650 | -55.70698 | 30774 ft | 473 kts | 346° |
| 2026-04-23 19:48 | -17.00499 | -55.71629 | 29844 ft | 470 kts | 346° |
| 2026-04-23 19:48 | -16.97330 | -55.72563 | 28575 ft | 473 kts | 346° |
| 2026-04-23 19:49 | -16.94162 | -55.73497 | 27371 ft | 474 kts | 346° |
| 2026-04-23 19:49 | -16.90985 | -55.74433 | 26177 ft | 476 kts | 345° |
| 2026-04-23 19:49 | -16.87802 | -55.75371 | 25164 ft | 474 kts | 345° |
| 2026-04-23 19:49 | -16.84637 | -55.76304 | 24216 ft | 471 kts | 345° |
| 2026-04-23 19:50 | -16.81485 | -55.77232 | 23254 ft | 468 kts | 345° |
| 2026-04-23 19:50 | -16.78355 | -55.78154 | 22207 ft | 465 kts | 345° |
| 2026-04-23 19:50 | -16.75262 | -55.79065 | 21280 ft | 459 kts | 345° |
| 2026-04-23 19:50 | -16.72200 | -55.79966 | 20348 ft | 455 kts | 345° |
| 2026-04-23 19:51 | -16.69164 | -55.80859 | 19429 ft | 451 kts | 345° |
| 2026-04-23 19:51 | -16.66153 | -55.81745 | 18512 ft | 448 kts | 345° |
| 2026-04-23 19:51 | -16.63195 | -55.82614 | 17519 ft | 446 kts | 345° |
| 2026-04-23 19:51 | -16.60230 | -55.83486 | 16681 ft | 438 kts | 345° |
| 2026-04-23 19:52 | -16.57302 | -55.84346 | 15765 ft | 434 kts | 345° |
| 2026-04-23 19:52 | -16.54727 | -55.85103 | 14987 ft | 429 kts | 346° |
| 2026-04-23 19:52 | -16.51899 | -55.85925 | 14333 ft | 419 kts | 347° |
| 2026-04-23 19:52 | -16.49091 | -55.86604 | 13674 ft | 410 kts | 349° |
| 2026-04-23 19:53 | -16.46627 | -55.87117 | 12981 ft | 404 kts | 351° |
| 2026-04-23 19:53 | -16.43882 | -55.87662 | 12130 ft | 400 kts | 351° |
| 2026-04-23 19:53 | -16.41160 | -55.88205 | 11326 ft | 396 kts | 350° |
| 2026-04-23 19:53 | -16.38487 | -55.88752 | 10863 ft | 385 kts | 350° |
| 2026-04-23 19:54 | -16.35933 | -55.89284 | 10721 ft | 365 kts | 350° |
| 2026-04-23 19:54 | -16.33511 | -55.89795 | 10613 ft | 346 kts | 350° |
| 2026-04-23 19:54 | -16.31202 | -55.90283 | 10503 ft | 330 kts | 350° |
| 2026-04-23 19:54 | -16.29000 | -55.90749 | 10405 ft | 315 kts | 350° |
| 2026-04-23 19:55 | -16.26906 | -55.91193 | 10303 ft | 298 kts | 350° |
| 2026-04-23 19:55 | -16.24930 | -55.91611 | 10055 ft | 284 kts | 350° |
| 2026-04-23 19:55 | -16.23000 | -55.92019 | 9531 ft | 282 kts | 350° |
| 2026-04-23 19:55 | -16.21100 | -55.92420 | 9014 ft | 281 kts | 350° |
| 2026-04-23 19:56 | -16.19195 | -55.92822 | 8724 ft | 279 kts | 350° |
| 2026-04-23 19:56 | -16.17298 | -55.93223 | 8447 ft | 278 kts | 350° |
| 2026-04-23 19:56 | -16.15400 | -55.93624 | 8180 ft | 278 kts | 350° |
| 2026-04-23 19:56 | -16.13509 | -55.94023 | 7933 ft | 277 kts | 350° |
| 2026-04-23 19:57 | -16.11622 | -55.94421 | 7673 ft | 276 kts | 350° |
| 2026-04-23 19:57 | -16.09738 | -55.94819 | 7411 ft | 275 kts | 350° |
| 2026-04-23 19:57 | -16.07852 | -55.95218 | 7160 ft | 275 kts | 350° |
| 2026-04-23 19:57 | -16.05982 | -55.95613 | 6911 ft | 274 kts | 350° |
| 2026-04-23 19:58 | -16.04115 | -55.96007 | 6654 ft | 273 kts | 350° |
| 2026-04-23 19:58 | -16.02255 | -55.96400 | 6405 ft | 272 kts | 350° |
| 2026-04-23 19:58 | -16.00405 | -55.96790 | 6142 ft | 271 kts | 350° |
| 2026-04-23 19:58 | -15.98584 | -55.97174 | 5879 ft | 269 kts | 350° |
| 2026-04-23 19:59 | -15.96752 | -55.97561 | 5631 ft | 268 kts | 350° |
| 2026-04-23 19:59 | -15.94931 | -55.97945 | 5372 ft | 266 kts | 350° |
| 2026-04-23 19:59 | -15.93121 | -55.98327 | 5127 ft | 265 kts | 350° |
| 2026-04-23 19:59 | -15.91320 | -55.98707 | 4873 ft | 263 kts | 350° |
| 2026-04-23 20:00 | -15.89525 | -55.99085 | 4659 ft | 264 kts | 349° |
| 2026-04-23 20:00 | -15.87746 | -55.99610 | 4348 ft | 267 kts | 335° |
| 2026-04-23 20:00 | -15.86131 | -56.00522 | 4128 ft | 261 kts | 332° |
| 2026-04-23 20:00 | -15.84541 | -56.01387 | 3979 ft | 252 kts | 333° |
| 2026-04-23 20:01 | -15.83023 | -56.02194 | 3979 ft | 239 kts | 333° |
| 2026-04-23 20:01 | -15.81561 | -56.02972 | 3767 ft | 235 kts | 333° |
| 2026-04-23 20:01 | -15.80107 | -56.03748 | 3475 ft | 235 kts | 333° |
| 2026-04-23 20:01 | -15.78657 | -56.04524 | 3194 ft | 234 kts | 333° |
| 2026-04-23 20:02 | -15.77244 | -56.05281 | 2917 ft | 228 kts | 332° |
| 2026-04-23 20:02 | -15.75862 | -56.06020 | 2618 ft | 219 kts | 333° |
| 2026-04-23 20:02 | -15.74529 | -56.06732 | 2344 ft | 207 kts | 333° |
| 2026-04-23 20:02 | -15.73287 | -56.07397 | 2092 ft | 195 kts | 332° |
| 2026-04-23 20:03 | -15.72141 | -56.08010 | 1884 ft | 174 kts | 332° |
| 2026-04-23 20:03 | -15.71117 | -56.08557 | 1649 ft | 154 kts | 332° |
| 2026-04-23 20:03 | -15.70203 | -56.09046 | 1446 ft | 144 kts | 332° |
| 2026-04-23 20:03 | -15.69340 | -56.09508 | 1292 ft | 141 kts | 334° |
| 2026-04-23 20:04 | -15.68434 | -56.10001 | 1110 ft | 152 kts | 334° |
| 2026-04-23 20:04 | -15.67467 | -56.10514 | 898 ft | 159 kts | 334° |
| 2026-04-23 20:04 | -15.66471 | -56.11053 | 679 ft | 163 kts | 335° |
| 2026-04-23 20:04 | -15.65514 | -56.11539 | 597 ft | 133 kts | 335° |
| 2026-04-23 20:05 | -15.65128 | -56.11746 | 597 ft | 29 kts | 331° |
| 2026-04-23 20:05 | -15.65070 | -56.11826 | 597 ft | 11 kts | 255° |
| 2026-04-23 20:05 | -15.65109 | -56.11891 | 596 ft | 11 kts | 190° |
| 2026-04-23 20:05 | -15.65177 | -56.11862 | 596 ft | 10 kts | 155° |
| 2026-04-23 20:06 | -15.65200 | -56.11863 | 596 ft | 3 kts | 219° |
| 2026-04-23 20:06 | -15.65219 | -56.11890 | 596 ft | 0 kts | 241° |